createdAt,value
2022-11-06T00:01:43.556Z,99771.47
2022-11-06T00:04:37.059Z,99777.25
2022-11-06T00:07:21.412Z,99782.22
2022-11-06T00:10:01.048Z,99785.13
2022-11-06T00:12:50.992Z,99776.63
2022-11-06T00:15:39.687Z,99779.72
2022-11-06T00:18:31.610Z,99783.47
2022-11-06T00:21:28.065Z,99781.59
2022-11-06T00:24:09.553Z,99780.56
2022-11-06T00:27:10.653Z,99776.00
2022-11-06T00:29:54.935Z,99769.75
2022-11-06T00:32:35.487Z,99774.94
2022-11-06T00:35:16.240Z,99778.69
2022-11-06T00:38:02.467Z,99778.09
2022-11-06T00:41:00.787Z,99772.72
2022-11-06T00:43:56.827Z,99775.59
2022-11-06T00:46:39.381Z,99773.97
2022-11-06T00:49:16.920Z,99771.91
2022-11-06T00:52:00.249Z,99768.78
2022-11-06T00:54:45.818Z,99767.94
2022-11-06T00:57:32.009Z,99771.06
2022-11-06T01:00:20.826Z,99773.97
2022-11-06T01:03:08.010Z,99776.03
2022-11-06T01:05:53.607Z,99769.78
2022-11-06T01:08:40.573Z,99779.75
2022-11-06T01:12:06.888Z,99782.69
2022-11-06T01:14:48.893Z,99775.84
2022-11-06T01:17:32.835Z,99777.06
2022-11-06T01:20:24.040Z,99769.59
2022-11-06T01:23:11.431Z,99774.13
2022-11-06T01:25:59.088Z,99781.38
2022-11-06T01:28:49.144Z,99782.22
2022-11-06T01:31:29.588Z,99781.81
2022-11-06T01:34:10.917Z,99774.97
2022-11-06T01:37:01.076Z,99770.22
2022-11-06T01:39:49.844Z,99772.09
2022-11-06T01:42:45.228Z,99776.84
2022-11-06T01:45:32.526Z,99780.38
2022-11-06T01:48:11.644Z,99778.09
2022-11-06T01:51:00.944Z,99778.53
2022-11-06T01:53:49.900Z,99781.44
2022-11-06T01:56:39.452Z,99783.91
2022-11-06T01:59:21.289Z,99788.50
2022-11-06T02:02:05.185Z,99793.88
2022-11-06T02:04:57.445Z,99792.41
2022-11-06T02:07:44.069Z,99788.88
2022-11-06T02:10:25.571Z,99790.13
2022-11-06T02:13:15.467Z,99797.19
2022-11-06T02:16:27.596Z,99799.44
2022-11-06T02:19:21.345Z,99794.06
2022-11-06T02:22:47.087Z,99794.25
2022-11-06T02:25:57.495Z,99801.94
2022-11-06T02:28:42.030Z,99791.75
2022-11-06T02:31:27.355Z,99796.31
2022-11-06T02:34:15.303Z,99808.16
2022-11-06T02:37:15.671Z,99796.75
2022-11-06T02:40:03.757Z,99801.31
2022-11-06T02:42:52.090Z,99793.44
2022-11-06T02:45:41.625Z,99799.25
2022-11-06T02:48:31.926Z,99800.06
2022-11-06T02:51:21.554Z,99819.78
2022-11-06T02:54:04.480Z,99811.88
2022-11-06T02:56:42.792Z,99815.41
2022-11-06T02:59:27.542Z,99814.59
2022-11-06T03:02:25.149Z,99822.88
2022-11-06T03:05:14.938Z,99826.59
2022-11-06T03:08:08.872Z,99824.75
2022-11-06T03:11:19.610Z,99826.81
2022-11-06T03:14:04.496Z,99832.22
2022-11-06T03:17:07.078Z,99827.63
2022-11-06T03:20:04.921Z,99835.31
2022-11-06T03:23:04.226Z,99836.16
2022-11-06T03:26:00.241Z,99836.16
2022-11-06T03:28:47.762Z,99841.34
2022-11-06T03:31:42.513Z,99850.25
2022-11-06T03:34:27.478Z,99845.91
2022-11-06T03:37:34.349Z,99845.06
2022-11-06T03:40:21.634Z,99863.13
2022-11-06T03:43:05.379Z,99856.06
2022-11-06T03:45:46.781Z,99854.41
2022-11-06T03:48:39.822Z,99861.66
2022-11-06T03:51:32.848Z,99864.34
2022-11-06T03:54:38.491Z,99860.59
2022-11-06T03:57:24.038Z,99866.44
2022-11-06T04:00:06.056Z,99863.69
2022-11-06T04:03:08.532Z,99878.66
2022-11-06T04:05:54.086Z,99877.00
2022-11-06T04:08:51.438Z,99874.06
2022-11-06T04:11:48.843Z,99872.44
2022-11-06T04:14:35.080Z,99869.31
2022-11-06T04:17:17.772Z,99868.53
2022-11-06T04:20:11.058Z,99866.66
2022-11-06T04:23:06.589Z,99867.28
2022-11-06T04:26:40.107Z,99869.34
2022-11-06T04:29:54.119Z,99880.34
2022-11-06T04:33:16.892Z,99887.59
2022-11-06T04:36:26.804Z,99875.16
2022-11-06T04:39:28.807Z,99877.84
2022-11-06T04:42:32.870Z,99875.78
2022-11-06T04:45:21.613Z,99873.50
2022-11-06T04:48:12.182Z,99883.44
2022-11-06T04:50:57.444Z,99880.34
2022-11-06T04:53:39.604Z,99884.28
2022-11-06T04:56:25.816Z,99878.06
2022-11-06T04:59:09.231Z,99878.50
2022-11-06T05:01:52.232Z,99875.78
2022-11-06T05:04:32.931Z,99881.78
2022-11-06T05:07:18.386Z,99882.63
2022-11-06T05:10:05.541Z,99876.81
2022-11-06T05:12:58.615Z,99883.47
2022-11-06T05:15:45.064Z,99879.53
2022-11-06T05:18:32.075Z,99885.94
2022-11-06T05:21:28.679Z,99891.13
2022-11-06T05:24:09.748Z,99894.22
2022-11-06T05:27:01.270Z,99891.94
2022-11-06T05:29:43.094Z,99898.19
2022-11-06T05:32:31.584Z,99900.66
2022-11-06T05:35:18.221Z,99903.59
2022-11-06T05:38:12.875Z,99905.44
2022-11-06T05:40:54.964Z,99905.84
2022-11-06T05:43:38.541Z,99914.16
2022-11-06T05:46:47.543Z,99912.06
2022-11-06T05:49:37.084Z,99917.06
2022-11-06T05:52:22.511Z,99919.94
2022-11-06T05:55:13.182Z,99922.47
2022-11-06T05:57:56.230Z,99923.47
2022-11-06T06:00:43.066Z,99921.81
2022-11-06T06:03:32.249Z,99929.31
2022-11-06T06:06:16.081Z,99938.84
2022-11-06T06:09:01.914Z,99945.50
2022-11-06T06:11:46.394Z,99945.88
2022-11-06T06:14:33.754Z,99944.03
2022-11-06T06:17:16.862Z,99954.81
2022-11-06T06:20:04.302Z,99952.72
2022-11-06T06:22:44.987Z,99958.56
2022-11-06T06:25:28.838Z,99961.25
2022-11-06T06:28:21.177Z,99957.75
2022-11-06T06:31:01.811Z,99965.81
2022-11-06T06:33:46.917Z,99965.19
2022-11-06T06:36:27.570Z,99967.28
2022-11-06T06:39:16.495Z,99972.03
2022-11-06T06:42:10.355Z,99975.56
2022-11-06T06:44:51.006Z,99978.06
2022-11-06T06:47:38.393Z,99976.00
2022-11-06T06:50:22.546Z,99986.38
2022-11-06T06:53:19.723Z,99987.59
2022-11-06T06:55:59.049Z,99996.13
2022-11-06T06:58:50.610Z,100001.91
2022-11-06T07:01:39.120Z,99994.47
2022-11-06T07:04:20.428Z,100000.47
2022-11-06T07:07:01.205Z,100000.47
2022-11-06T07:09:46.081Z,100002.16
2022-11-06T07:12:24.061Z,100003.38
2022-11-06T07:15:08.624Z,100013.16
2022-11-06T07:17:56.432Z,100000.47
2022-11-06T07:20:54.496Z,100014.38
2022-11-06T07:23:34.897Z,100013.34
2022-11-06T07:26:24.255Z,100004.63
2022-11-06T07:29:10.514Z,100009.00
2022-11-06T07:31:59.408Z,100012.09
2022-11-06T07:34:50.467Z,100016.66
2022-11-06T07:37:39.442Z,100012.53
2022-11-06T07:40:25.414Z,100020.41
2022-11-06T07:43:15.104Z,100017.50
2022-11-06T07:45:50.236Z,100016.69
2022-11-06T07:48:28.514Z,100023.31
2022-11-06T07:51:23.101Z,100024.16
2022-11-06T07:54:03.902Z,100022.50
2022-11-06T07:56:58.976Z,100025.00
2022-11-06T07:59:43.114Z,100030.16
2022-11-06T08:02:26.129Z,100026.03
2022-11-06T08:05:17.473Z,100024.16
2022-11-06T08:07:59.155Z,100034.09
2022-11-06T08:10:47.697Z,100031.19
2022-11-06T08:13:39.817Z,100033.25
2022-11-06T08:16:27.477Z,100030.19
2022-11-06T08:19:05.125Z,100037.63
2022-11-06T08:21:51.632Z,100038.06
2022-11-06T08:24:41.541Z,100042.03
2022-11-06T08:27:34.052Z,100044.47
2022-11-06T08:30:20.608Z,100039.91
2022-11-06T08:33:10.445Z,100037.84
2022-11-06T08:35:57.079Z,100039.91
2022-11-06T08:38:38.819Z,100046.53
2022-11-06T08:41:18.524Z,100052.38
2022-11-06T08:44:11.076Z,100045.72
2022-11-06T08:46:59.541Z,100037.00
2022-11-06T08:49:50.667Z,100038.03
2022-11-06T08:52:33.895Z,100038.25
2022-11-06T08:55:28.792Z,100035.16
2022-11-06T08:58:14.575Z,100037.81
2022-11-06T09:00:55.632Z,100040.72
2022-11-06T09:03:40.441Z,100035.75
2022-11-06T09:06:22.128Z,100035.31
2022-11-06T09:09:10.548Z,100037.78
2022-11-06T09:11:58.045Z,100034.47
2022-11-06T09:14:39.035Z,100034.47
2022-11-06T09:17:24.095Z,100034.03
2022-11-06T09:20:01.689Z,100031.56
2022-11-06T09:22:42.030Z,100030.75
2022-11-06T09:25:25.343Z,100024.94
2022-11-06T09:28:18.222Z,100026.59
2022-11-06T09:31:10.604Z,100029.06
2022-11-06T09:34:03.275Z,100021.75
2022-11-06T09:36:51.792Z,100019.88
2022-11-06T09:39:38.941Z,100016.34
2022-11-06T09:42:32.061Z,100015.84
2022-11-06T09:45:30.287Z,100013.06
2022-11-06T09:48:26.456Z,100010.72
2022-11-06T09:51:15.047Z,100020.19
2022-11-06T09:54:10.933Z,100009.06
2022-11-06T09:56:58.007Z,100019.97
2022-11-06T09:59:47.577Z,100023.16
2022-11-06T10:02:52.552Z,100014.09
2022-11-06T10:05:48.289Z,100008.91
2022-11-06T10:08:36.695Z,100014.31
2022-11-06T10:11:18.478Z,100012.75
2022-11-06T10:14:29.030Z,100009.56
2022-11-06T10:17:17.767Z,100014.47
2022-11-06T10:20:14.626Z,100010.00
2022-11-06T10:23:15.302Z,100007.66
2022-11-06T10:26:42.541Z,100008.44
2022-11-06T10:29:45.517Z,99995.94
2022-11-06T10:32:47.052Z,100008.44
2022-11-06T10:35:47.770Z,100004.69
2022-11-06T10:38:34.184Z,99995.16
2022-11-06T10:41:33.341Z,100001.19
2022-11-06T10:44:27.306Z,99991.66
2022-11-06T10:47:08.583Z,99998.00
2022-11-06T10:50:06.000Z,99986.28
2022-11-06T10:53:25.435Z,99992.53
2022-11-06T10:56:54.975Z,99986.88
2022-11-06T10:59:40.963Z,99982.31
2022-11-06T11:02:46.175Z,99984.91
2022-11-06T11:05:46.124Z,99978.88
2022-11-06T11:08:33.587Z,99975.22
2022-11-06T11:11:51.783Z,99979.22
2022-11-06T11:14:36.891Z,99969.81
2022-11-06T11:17:24.758Z,99973.66
2022-11-06T11:20:11.150Z,99976.81
2022-11-06T11:22:52.174Z,99973.44
2022-11-06T11:25:37.076Z,99974.50
2022-11-06T11:28:42.759Z,99965.84
2022-11-06T11:31:33.787Z,99968.25
2022-11-06T11:34:22.033Z,99968.34
2022-11-06T11:37:11.263Z,99948.38
2022-11-06T11:39:59.500Z,99952.00
2022-11-06T11:42:42.440Z,99952.00
2022-11-06T11:45:25.450Z,99955.75
2022-11-06T11:48:22.448Z,99952.97
2022-11-06T11:51:33.999Z,99949.56
2022-11-06T11:54:26.940Z,99953.78
2022-11-06T11:57:12.008Z,99953.16
2022-11-06T12:00:00.600Z,99950.63
2022-11-06T12:03:13.105Z,99949.28
2022-11-06T12:05:57.207Z,99949.94
2022-11-06T12:08:41.589Z,99951.31
2022-11-06T12:11:36.354Z,99950.91
2022-11-06T12:14:40.962Z,99944.66
2022-11-06T12:17:25.310Z,99943.50
2022-11-06T12:20:12.446Z,99942.00
2022-11-06T12:22:56.009Z,99941.75
2022-11-06T12:25:45.082Z,99937.94
2022-11-06T12:28:31.049Z,99936.94
2022-11-06T12:31:45.092Z,99939.72
2022-11-06T12:34:48.923Z,99944.47
2022-11-06T12:37:40.685Z,99939.25
2022-11-06T12:40:44.922Z,99947.59
2022-11-06T12:43:33.059Z,99944.50
2022-11-06T12:46:37.931Z,99944.16
2022-11-06T12:49:46.372Z,99948.28
2022-11-06T12:53:06.578Z,99949.50
2022-11-06T12:56:10.507Z,99951.81
2022-11-06T12:59:22.232Z,99952.31
2022-11-06T13:02:16.179Z,99947.47
2022-11-06T13:05:21.297Z,99957.03
2022-11-06T13:08:17.647Z,99947.69
2022-11-06T13:11:00.874Z,99950.03
2022-11-06T13:13:53.068Z,99959.47
2022-11-06T13:16:53.907Z,99958.19
2022-11-06T13:19:55.345Z,99953.97
2022-11-06T13:23:08.130Z,99950.06
2022-11-06T13:26:15.404Z,99954.16
2022-11-06T13:29:07.656Z,99954.91
2022-11-06T13:31:57.828Z,99954.25
2022-11-06T13:34:59.134Z,99954.78
2022-11-06T13:38:01.145Z,99952.59
2022-11-06T13:40:48.472Z,99950.09
2022-11-06T13:43:37.694Z,99964.78
2022-11-06T13:46:38.798Z,99959.66
2022-11-06T13:49:57.654Z,99963.13
2022-11-06T13:52:54.308Z,99958.84
2022-11-06T13:56:16.871Z,99960.88
2022-11-06T13:59:34.852Z,99952.59
2022-11-06T14:02:54.131Z,99953.78
2022-11-06T14:06:02.066Z,99945.97
2022-11-06T14:09:22.365Z,99944.22
2022-11-06T14:12:14.813Z,99949.13
2022-11-06T14:15:11.636Z,99951.25
2022-11-06T14:18:09.952Z,99946.28
2022-11-06T14:21:27.356Z,99942.81
2022-11-06T14:24:47.095Z,99944.47
2022-11-06T14:27:45.424Z,99941.75
2022-11-06T14:34:07.758Z,99953.09
2022-11-06T14:37:08.786Z,99940.41
2022-11-06T14:43:24.070Z,99943.56
2022-11-06T14:46:23.742Z,99951.09
2022-11-06T14:49:13.218Z,99950.31
2022-11-06T14:52:22.295Z,99949.59
2022-11-06T14:55:34.007Z,99947.94
2022-11-06T14:58:46.847Z,99954.88
2022-11-06T15:01:57.560Z,99951.72
2022-11-06T15:04:53.968Z,99953.09
2022-11-06T15:08:13.008Z,99950.94
2022-11-06T15:11:01.095Z,99952.25
2022-11-06T15:13:53.187Z,99948.00
2022-11-06T15:16:49.784Z,99951.38
2022-11-06T15:19:40.716Z,99946.78
2022-11-06T15:23:04.097Z,99949.66
2022-11-06T15:26:17.009Z,99941.31
2022-11-06T15:29:15.186Z,99936.13
2022-11-06T15:31:57.559Z,99946.75
2022-11-06T15:35:01.984Z,99949.44
2022-11-06T15:37:56.103Z,99949.63
2022-11-06T15:40:43.005Z,99948.19
2022-11-06T15:43:41.725Z,99947.56
2022-11-06T15:46:37.411Z,99948.84
2022-11-06T15:49:35.010Z,99962.13
2022-11-06T15:52:41.970Z,99950.53
2022-11-06T15:55:49.980Z,99958.88
2022-11-06T15:58:46.058Z,99946.78
2022-11-06T16:01:50.305Z,99960.75
2022-11-06T16:07:38.044Z,99967.16
2022-11-06T16:10:41.521Z,99966.63
2022-11-06T16:13:34.350Z,99965.00
2022-11-06T16:16:53.960Z,99961.09
2022-11-06T16:19:51.558Z,99966.72
2022-11-06T16:22:47.570Z,99967.16
2022-11-06T16:25:29.052Z,99969.28
2022-11-06T16:28:28.095Z,99973.88
2022-11-06T16:31:24.869Z,99983.03
2022-11-06T16:34:51.847Z,99983.03
2022-11-06T16:37:35.960Z,99996.94
2022-11-06T16:40:50.372Z,100001.09
2022-11-06T16:43:49.311Z,100003.16
2022-11-06T16:46:47.051Z,99999.88
2022-11-06T16:49:57.583Z,99996.75
2022-11-06T16:52:43.363Z,99999.63
2022-11-06T16:55:34.425Z,99991.09
2022-11-06T16:58:34.326Z,99990.88
2022-11-06T17:01:21.218Z,99992.56
2022-11-06T17:04:05.308Z,99984.84
2022-11-06T17:06:51.122Z,99992.09
2022-11-06T17:09:45.501Z,99987.47
2022-11-06T17:12:45.992Z,99995.50
2022-11-06T17:15:38.343Z,99991.53
2022-11-06T17:18:23.962Z,99985.09
2022-11-06T17:21:11.564Z,99987.81
2022-11-06T17:23:48.896Z,99994.66
2022-11-06T17:26:53.805Z,99990.91
2022-11-06T17:29:36.758Z,99982.78
2022-11-06T17:32:20.459Z,99984.88
2022-11-06T17:35:10.086Z,99985.88
2022-11-06T17:37:59.110Z,99973.63
2022-11-06T17:40:53.553Z,99982.94
2022-11-06T17:43:46.586Z,99986.63
2022-11-06T17:46:37.445Z,99980.63
2022-11-06T17:49:28.011Z,99984.09
2022-11-06T17:52:17.890Z,99981.41
2022-11-06T17:55:06.809Z,99992.16
2022-11-06T17:57:53.446Z,99984.91
2022-11-06T18:00:43.041Z,99989.31
2022-11-06T18:03:49.336Z,99998.44
2022-11-06T18:06:34.729Z,100000.06
2022-11-06T18:09:33.653Z,100008.31
2022-11-06T18:12:17.710Z,100009.28
2022-11-06T18:15:09.088Z,100015.28
2022-11-06T18:18:00.780Z,100009.53
2022-11-06T18:21:07.422Z,100006.59
2022-11-06T18:24:00.318Z,100013.22
2022-11-06T18:26:49.430Z,100015.56
2022-11-06T18:29:49.780Z,100006.69
2022-11-06T18:32:43.860Z,100004.63
2022-11-06T18:35:37.727Z,100000.06
2022-11-06T18:38:19.560Z,99997.84
2022-11-06T18:41:17.535Z,99996.19
2022-11-06T18:44:08.371Z,99989.78
2022-11-06T18:46:56.074Z,100002.63
2022-11-06T18:49:43.349Z,100016.28
2022-11-06T18:52:55.854Z,100013.19
2022-11-06T18:56:00.274Z,100019.81
2022-11-06T18:58:49.083Z,100014.81
2022-11-06T19:01:38.131Z,100017.50
2022-11-06T19:04:26.179Z,100017.91
2022-11-06T19:07:10.192Z,100026.59
2022-11-06T19:10:05.179Z,100031.69
2022-11-06T19:13:00.400Z,100023.00
2022-11-06T19:18:43.043Z,100021.91
2022-11-06T19:21:46.121Z,100032.22
2022-11-06T19:24:47.517Z,100022.25
2022-11-06T19:27:33.502Z,100034.22
2022-11-06T19:30:20.201Z,100035.91
2022-11-06T19:33:09.246Z,100038.75
2022-11-06T19:35:57.390Z,100034.44
2022-11-06T19:38:44.320Z,100035.50
2022-11-06T19:41:32.921Z,100040.50
2022-11-06T19:44:14.144Z,100029.53
2022-11-06T19:47:02.222Z,100033.31
2022-11-06T19:49:49.062Z,100036.81
2022-11-06T19:52:41.452Z,100026.69
2022-11-06T19:55:27.918Z,100028.75
2022-11-06T19:58:27.103Z,100029.97
2022-11-06T20:01:24.042Z,100019.41
2022-11-06T20:04:08.095Z,100023.53
2022-11-06T20:07:05.981Z,100028.25
2022-11-06T20:09:50.114Z,100025.53
2022-11-06T20:12:40.090Z,100018.81
2022-11-06T20:15:29.175Z,100019.84
2022-11-06T20:18:13.785Z,100024.59
2022-11-06T20:20:54.788Z,100028.66
2022-11-06T20:23:38.979Z,100020.16
2022-11-06T20:26:19.600Z,100021.97
2022-11-06T20:29:04.060Z,100023.59
2022-11-06T20:31:49.356Z,100023.34
2022-11-06T20:34:35.592Z,100021.44
2022-11-06T20:37:25.704Z,100027.97
2022-11-06T20:40:08.991Z,100034.94
2022-11-06T20:42:57.055Z,100030.69
2022-11-06T20:45:50.749Z,100034.81
2022-11-06T20:48:30.774Z,100039.09
2022-11-06T20:51:48.328Z,100043.19
2022-11-06T20:54:43.700Z,100052.38
2022-11-06T20:57:33.063Z,100044.03
2022-11-06T21:00:13.017Z,100036.19
2022-11-06T21:02:54.290Z,100042.94
2022-11-06T21:05:43.050Z,100039.72
2022-11-06T21:08:30.782Z,100037.97
2022-11-06T21:11:18.310Z,100035.97
2022-11-06T21:14:18.345Z,100054.22
2022-11-06T21:16:56.577Z,100059.84
2022-11-06T21:19:45.809Z,100054.59
2022-11-06T21:22:35.063Z,100056.78
2022-11-06T21:25:19.041Z,100051.16
2022-11-06T21:28:05.517Z,100045.38
2022-11-06T21:30:57.789Z,100055.47
2022-11-06T21:33:40.138Z,100054.09
2022-11-06T21:36:25.960Z,100053.72
2022-11-06T21:39:19.559Z,100054.09
2022-11-06T21:42:05.804Z,100053.28
2022-11-06T21:44:54.020Z,100052.44
2022-11-06T21:47:45.726Z,100050.13
2022-11-06T21:50:31.036Z,100060.03
2022-11-06T21:53:29.013Z,100052.06
2022-11-06T21:56:19.995Z,100057.81
2022-11-06T21:59:04.725Z,100063.19
2022-11-06T22:01:51.491Z,100064.56
2022-11-06T22:04:36.052Z,100057.28
2022-11-06T22:07:18.514Z,100055.63
2022-11-06T22:10:05.343Z,100055.34
2022-11-06T22:12:45.484Z,100053.38
2022-11-06T22:15:35.069Z,100058.81
2022-11-06T22:18:14.572Z,100060.38
2022-11-06T22:20:54.156Z,100064.88
2022-11-06T22:23:38.506Z,100061.75
2022-11-06T22:26:17.061Z,100068.38
2022-11-06T22:29:12.000Z,100063.03
2022-11-06T22:31:52.447Z,100064.38
2022-11-06T22:34:32.996Z,100077.91
2022-11-06T22:37:16.514Z,100067.00
2022-11-06T22:40:06.147Z,100071.91
2022-11-06T22:42:52.037Z,100077.44
2022-11-06T22:45:34.052Z,100074.47
2022-11-06T22:48:25.949Z,100089.06
2022-11-06T22:51:15.333Z,100083.91
2022-11-06T22:53:54.247Z,100078.91
2022-11-06T22:56:37.020Z,100077.22
2022-11-06T22:59:22.047Z,100075.19
2022-11-06T23:02:10.880Z,100078.25
2022-11-06T23:05:02.793Z,100074.91
2022-11-06T23:07:47.602Z,100072.16
2022-11-06T23:10:36.159Z,100071.84
2022-11-06T23:13:16.251Z,100071.47
2022-11-06T23:16:13.239Z,100072.16
2022-11-06T23:18:53.412Z,100073.47
2022-11-06T23:21:33.571Z,100077.13
2022-11-06T23:24:14.522Z,100078.81
2022-11-06T23:27:00.867Z,100070.41
2022-11-06T23:29:39.994Z,100073.84
2022-11-06T23:32:28.927Z,100066.72
2022-11-06T23:35:11.655Z,100073.63
2022-11-06T23:38:02.253Z,100066.06
2022-11-06T23:40:43.190Z,100073.25
2022-11-06T23:43:54.917Z,100077.25
2022-11-06T23:46:42.144Z,100076.03
2022-11-06T23:49:36.391Z,100081.03
2022-11-06T23:52:22.124Z,100072.53
2022-11-06T23:55:08.410Z,100079.19
2022-11-06T23:57:54.917Z,100076.31
